^^
Station Historical Data
Daily Summary for April 13, 2021 Units:  English    Metric   Both
Daily Weekly Monthly Yearly
  High: Low: Average:
Temperature: 59 °F 47.5 °F 53 °F
Dew Point: 50.6 °F 36.4 °F 43.6 °F
Humidity: 89% 53% 71%
Wind Speed: 11mph 0mph 5.8mph
Wind Gust: 16mph - -
Wind- - WSW
Pressure: 30.05 in 29.84 in -
Precipitation: 0.00 in    
 
 
Tabular Data for April 13, 2021
Time Temperature Dew Point Pressure Wind Wind Speed Wind Gust Humidity Rainfall Rate (Hourly) solar
00:00 54.1 °F 50.6 °F 29.84 in Calm     88% 0.00 in 0 W/m2
00:05 54.1 °F 50.6 °F 29.84 in Calm     88% 0.00 in 0 W/m2
00:10 53.9 °F 50.4 °F 29.84 in Calm   1 mph 88% 0.00 in 0 W/m2
00:15 53.9 °F 50.4 °F 29.84 in Calm   1 mph 88% 0.00 in 0 W/m2
00:20 53.7 °F 50.2 °F 29.84 in West 1 mph 1 mph 88% 0.00 in 0 W/m2
00:25 53.6 °F 50.1 °F 29.84 in NW 1 mph 1 mph 88% 0.00 in 0 W/m2
00:30 53.5 °F 50 °F 29.85 in NW 2 mph 2 mph 88% 0.00 in 0 W/m2
00:35 53.4 °F 49.9 °F 29.85 in NW 1 mph 2 mph 88% 0.00 in 0 W/m2
00:40 53.3 °F 49.8 °F 29.85 in WNW 1 mph 1 mph 88% 0.00 in 0 W/m2
00:45 53.3 °F 50.1 °F 29.85 in West 1 mph 1 mph 89% 0.00 in 0 W/m2
00:50 53.2 °F 50 °F 29.85 in WSW 1 mph 1 mph 89% 0.00 in 0 W/m2
00:55 53.1 °F 49.9 °F 29.85 in West 1 mph 1 mph 89% 0.00 in 0 W/m2
01:00 53.1 °F 49.9 °F 29.85 in West 2 mph 2 mph 89% 0.00 in 0 W/m2
01:05 53 °F 49.8 °F 29.85 in West 2 mph 2 mph 89% 0.00 in 0 W/m2
01:10 52.9 °F 49.7 °F 29.86 in SW 2 mph 2 mph 89% 0.00 in 0 W/m2
01:15 52.7 °F 49.5 °F 29.86 in West 2 mph 3 mph 89% 0.00 in 0 W/m2
01:20 52.7 °F 49.5 °F 29.86 in WSW 3 mph 3 mph 89% 0.00 in 0 W/m2
01:25 52.6 °F 49.4 °F 29.86 in SW 3 mph 3 mph 89% 0.00 in 0 W/m2
01:30 52.6 °F 49.4 °F 29.86 in SW 4 mph 4 mph 89% 0.00 in 0 W/m2
01:40 52.8 °F 49.6 °F 29.87 in West 4 mph 8 mph 89% 0.00 in 0 W/m2
01:45 52.9 °F 49.7 °F 29.86 in SW 5 mph 8 mph 89% 0.00 in 0 W/m2
01:50 53 °F 49.5 °F 29.87 in WSW 5 mph 5 mph 88% 0.00 in 0 W/m2
01:55 53.1 °F 49.6 °F 29.87 in SSW 6 mph 6 mph 88% 0.00 in 0 W/m2
02:00 53.1 °F 49.3 °F 29.87 in West 7 mph 7 mph 87% 0.00 in 0 W/m2
02:05 53.1 °F 49 °F 29.87 in SSW 7 mph 7 mph 86% 0.00 in 0 W/m2
02:10 53 °F 48.9 °F 29.87 in West 6 mph 6 mph 86% 0.00 in 0 W/m2
02:15 52.9 °F 48.5 °F 29.88 in WSW 6 mph 6 mph 85% 0.00 in 0 W/m2
02:20 52.9 °F 48.2 °F 29.88 in WNW 6 mph 7 mph 84% 0.00 in 0 W/m2
02:25 52.7 °F 47.7 °F 29.88 in SW 6 mph 11 mph 83% 0.00 in 0 W/m2
02:30 52.5 °F 47.5 °F 29.88 in West 6 mph 6 mph 83% 0.00 in 0 W/m2
02:40 52.2 °F 46.9 °F 29.88 in West 6 mph 7 mph 82% 0.00 in 0 W/m2
02:45 52.1 °F 46.8 °F 29.88 in WSW 5 mph 7 mph 82% 0.00 in 0 W/m2
02:50 52 °F 46.7 °F 29.88 in SW 5 mph 6 mph 82% 0.00 in 0 W/m2
02:55 51.9 °F 46.3 °F 29.88 in WSW 6 mph 7 mph 81% 0.00 in 0 W/m2
03:00 51.7 °F 46.1 °F 29.89 in WNW 7 mph 8 mph 81% 0.00 in 0 W/m2
03:05 51.6 °F 46 °F 29.89 in West 7 mph 8 mph 81% 0.00 in 0 W/m2
03:10 51.5 °F 45.9 °F 29.89 in West 7 mph 7 mph 81% 0.00 in 0 W/m2
03:20 51.2 °F 45.6 °F 29.89 in WSW 5 mph 5 mph 81% 0.00 in 0 W/m2
03:25 51 °F 45.4 °F 29.90 in West 6 mph 6 mph 81% 0.00 in 0 W/m2
03:30 50.8 °F 45.2 °F 29.90 in West 6 mph 8 mph 81% 0.00 in 0 W/m2
03:35 50.7 °F 45.1 °F 29.90 in West 6 mph 8 mph 81% 0.00 in 0 W/m2
03:40 50.5 °F 44.9 °F 29.90 in SW 6 mph 6 mph 81% 0.00 in 0 W/m2
03:45 50.3 °F 44.7 °F 29.90 in WNW 6 mph 7 mph 81% 0.00 in 0 W/m2
03:50 50.2 °F 44.6 °F 29.90 in West 6 mph 6 mph 81% 0.00 in 0 W/m2
04:00 49.9 °F 44 °F 29.91 in WSW 6 mph 10 mph 80% 0.00 in 0 W/m2
04:05 49.9 °F 44.3 °F 29.91 in SW 6 mph 10 mph 81% 0.00 in 0 W/m2
04:10 49.8 °F 43.9 °F 29.91 in West 6 mph 6 mph 80% 0.00 in 0 W/m2
04:15 49.7 °F 43.8 °F 29.91 in NW 6 mph 6 mph 80% 0.00 in 0 W/m2
04:20 49.7 °F 43.8 °F 29.92 in WNW 6 mph 7 mph 80% 0.00 in 0 W/m2
04:25 49.6 °F 43.7 °F 29.92 in South 6 mph 7 mph 80% 0.00 in 0 W/m2
04:30 49.5 °F 43.3 °F 29.92 in West 6 mph 7 mph 79% 0.00 in 0 W/m2
04:35 49.4 °F 43.2 °F 29.92 in NW 5 mph 8 mph 79% 0.00 in 0 W/m2
04:40 49.3 °F 43.1 °F 29.92 in West 5 mph 5 mph 79% 0.00 in 0 W/m2
04:50 49.1 °F 42.9 °F 29.92 in WNW 6 mph 9 mph 79% 0.00 in 0 W/m2
04:55 49.1 °F 42.9 °F 29.93 in West 5 mph 9 mph 79% 0.00 in 0 W/m2
05:00 49.1 °F 43.2 °F 29.93 in SW 5 mph 6 mph 80% 0.00 in 0 W/m2
05:05 49 °F 43.1 °F 29.93 in WSW 5 mph 8 mph 80% 0.00 in 0 W/m2
05:10 48.8 °F 42.2 °F 29.93 in NNW 6 mph 6 mph 78% 0.00 in 0 W/m2
05:15 48.8 °F 42.6 °F 29.93 in WNW 6 mph 8 mph 79% 0.00 in 0 W/m2
05:20 48.8 °F 41.9 °F 29.93 in SW 6 mph 6 mph 77% 0.00 in 0 W/m2
05:30 48.8 °F 42.2 °F 29.93 in WSW 5 mph 5 mph 78% 0.00 in 0 W/m2
05:35 48.8 °F 42.2 °F 29.94 in WSW 5 mph 5 mph 78% 0.00 in 0 W/m2
05:40 48.8 °F 42.2 °F 29.94 in WSW 6 mph 6 mph 78% 0.00 in 0 W/m2
05:45 48.9 °F 43 °F 29.94 in SW 5 mph 6 mph 80% 0.00 in 0 W/m2
05:50 48.8 °F 42.9 °F 29.94 in WSW 5 mph 5 mph 80% 0.00 in 0 W/m2
05:55 48.9 °F 43.3 °F 29.94 in SW 5 mph 6 mph 81% 0.00 in 0 W/m2
06:00 48.9 °F 42.7 °F 29.94 in WSW 6 mph 6 mph 79% 0.00 in 0 W/m2
06:05 48.8 °F 42.2 °F 29.95 in SW 7 mph 9 mph 78% 0.00 in 0 W/m2
06:10 48.7 °F 42.5 °F 29.95 in WSW 6 mph 8 mph 79% 0.00 in 0 W/m2
06:15 48.6 °F 42.4 °F 29.95 in WSW 6 mph 8 mph 79% 0.00 in 0 W/m2
06:20 48.7 °F 42.8 °F 29.95 in WSW 7 mph 7 mph 80% 0.00 in 0 W/m2
06:25 48.6 °F 42.4 °F 29.95 in WSW 7 mph 7 mph 79% 0.00 in 0 W/m2
06:30 48.5 °F 42 °F 29.95 in WSW 6 mph 6 mph 78% 0.00 in 0 W/m2
06:35 48.4 °F 41.5 °F 29.95 in WSW 6 mph 16 mph 77% 0.00 in 0 W/m2
06:40 48.3 °F 41.8 °F 29.96 in WSW 6 mph 6 mph 78% 0.00 in 0 W/m2
06:45 48.2 °F 41.3 °F 29.96 in SW 6 mph 6 mph 77% 0.00 in 0 W/m2
06:50 48.2 °F 41.3 °F 29.96 in SW 6 mph 6 mph 77% 0.00 in 0 W/m2
06:55 48.1 °F 41.2 °F 29.96 in SW 7 mph 7 mph 77% 0.00 in 5 W/m2
07:00 48.1 °F 41.2 °F 29.96 in West 7 mph 7 mph 77% 0.00 in 9 W/m2
07:05 48.1 °F 41.2 °F 29.97 in WSW 6 mph 7 mph 77% 0.00 in 12 W/m2
07:10 48.1 °F 40.9 °F 29.97 in WSW 6 mph 6 mph 76% 0.00 in 14 W/m2
07:25 48.3 °F 41.8 °F 29.97 in West 6 mph 6 mph 78% 0.00 in 21 W/m2
07:35 48.2 °F 41 °F 29.97 in West 5 mph 7 mph 76% 0.00 in 30 W/m2
07:40 48.2 °F 41 °F 29.97 in NW 5 mph 5 mph 76% 0.00 in 51 W/m2
07:45 48.1 °F 40.5 °F 29.97 in WSW 5 mph 6 mph 75% 0.00 in 32 W/m2
07:50 48.1 °F 40.9 °F 29.98 in WSW 5 mph 11 mph 76% 0.00 in 39 W/m2
08:00 48.2 °F 40.6 °F 29.98 in WSW 5 mph 5 mph 75% 0.00 in 47 W/m2
08:05 48.2 °F 40.6 °F 29.98 in West 5 mph 5 mph 75% 0.00 in 72 W/m2
08:10 48.3 °F 41.1 °F 29.98 in WSW 6 mph 8 mph 76% 0.00 in 104 W/m2
08:15 48.5 °F 42 °F 29.98 in WSW 6 mph 8 mph 78% 0.00 in 97 W/m2
08:20 48.5 °F 41.3 °F 29.98 in West 5 mph 5 mph 76% 0.00 in 100 W/m2
08:30 48.5 °F 41.3 °F 29.99 in WSW 5 mph 5 mph 76% 0.00 in 225 W/m2
08:35 48.6 °F 41 °F 29.99 in WSW 5 mph 5 mph 75% 0.00 in 243 W/m2
08:40 48.7 °F 41.1 °F 29.99 in WSW 4 mph 5 mph 75% 0.00 in 258 W/m2
08:50 49.1 °F 41.2 °F 29.99 in West 4 mph 4 mph 74% 0.00 in 287 W/m2
08:55 49.2 °F 40.6 °F 29.99 in SW 5 mph 5 mph 72% 0.00 in 302 W/m2
09:00 49.4 °F 41.8 °F 29.99 in SW 4 mph 4 mph 75% 0.00 in 320 W/m2
09:05 49.6 °F 41.7 °F 29.99 in SSW 4 mph 6 mph 74% 0.00 in 336 W/m2
09:10 49.8 °F 41.5 °F 29.99 in SW 5 mph 8 mph 73% 0.00 in 352 W/m2
09:15 49.8 °F 41.8 °F 29.99 in SW 5 mph 8 mph 74% 0.00 in 366 W/m2
09:20 49.9 °F 42.6 °F 29.99 in SW 5 mph 5 mph 76% 0.00 in 380 W/m2
09:25 50 °F 41 °F 29.99 in WSW 4 mph 5 mph 71% 0.00 in 394 W/m2
09:30 50.1 °F 41.4 °F 29.99 in SW 4 mph 5 mph 72% 0.00 in 408 W/m2
09:35 50.3 °F 41.6 °F 29.99 in SW 5 mph 5 mph 72% 0.00 in 420 W/m2
09:40 50.6 °F 42.3 °F 29.99 in WSW 5 mph 5 mph 73% 0.00 in 438 W/m2
09:50 50.9 °F 41.1 °F 30.00 in SSW 5 mph 6 mph 69% 0.00 in 466 W/m2
09:55 50.7 °F 41.3 °F 29.99 in SW 5 mph 6 mph 70% 0.00 in 478 W/m2
10:00 50.6 °F 41.5 °F 29.99 in SW 5 mph 5 mph 71% 0.00 in 494 W/m2
10:05 50.9 °F 42.2 °F 29.99 in WSW 4 mph 5 mph 72% 0.00 in 504 W/m2
10:10 51.1 °F 42.4 °F 29.99 in SSW 4 mph 4 mph 72% 0.00 in 520 W/m2
10:15 51.3 °F 42.2 °F 29.99 in SW 5 mph 5 mph 71% 0.00 in 534 W/m2
10:20 51.5 °F 42.4 °F 29.99 in SW 4 mph 6 mph 71% 0.00 in 547 W/m2
10:25 51.6 °F 41.8 °F 29.99 in SSW 4 mph 6 mph 69% 0.00 in 561 W/m2
10:30 51.7 °F 41.9 °F 30.00 in SW 4 mph 4 mph 69% 0.00 in 573 W/m2
10:35 51.8 °F 41.9 °F 30.00 in West 4 mph 4 mph 69% 0.00 in 585 W/m2
10:40 51.9 °F 41.3 °F 30.00 in West 4 mph 4 mph 67% 0.00 in 596 W/m2
10:50 52.1 °F 41.1 °F 30.00 in SW 3 mph 4 mph 66% 0.00 in 621 W/m2
10:55 52.1 °F 41.5 °F 30.00 in SSW 4 mph 7 mph 67% 0.00 in 631 W/m2
11:00 51.9 °F 40.9 °F 30.00 in SW 5 mph 5 mph 66% 0.00 in 643 W/m2
11:05 52.1 °F 40.7 °F 30.00 in South 5 mph 5 mph 65% 0.00 in 656 W/m2
11:10 51.8 °F 40.8 °F 30.00 in SSW 5 mph 5 mph 66% 0.00 in 664 W/m2
11:20 52.2 °F 41.6 °F 30.00 in SSW 5 mph 5 mph 67% 0.00 in 687 W/m2
11:25 52.3 °F 40.9 °F 30.00 in SSW 5 mph 6 mph 65% 0.00 in 698 W/m2
11:30 52.5 °F 40.7 °F 30.00 in SW 5 mph 5 mph 64% 0.00 in 707 W/m2
11:35 53 °F 41.5 °F 30.00 in ESE 5 mph 5 mph 65% 0.00 in 715 W/m2
11:40 53.4 °F 42.3 °F 30.00 in SSW 4 mph 7 mph 66% 0.00 in 724 W/m2
11:45 53.4 °F 42.3 °F 30.00 in SSW 3 mph 7 mph 66% 0.00 in 733 W/m2
11:50 53.5 °F 41.6 °F 30.00 in South 4 mph 4 mph 64% 0.00 in 740 W/m2
11:55 53.6 °F 43.3 °F 30.00 in SW 4 mph 4 mph 68% 0.00 in 747 W/m2
12:00 53.7 °F 42.6 °F 30.00 in SSW 4 mph 4 mph 66% 0.00 in 754 W/m2
12:05 53.6 °F 42.5 °F 29.99 in SSE 5 mph 5 mph 66% 0.00 in 763 W/m2
12:10 54.5 °F 43.8 °F 29.99 in SE 5 mph 5 mph 67% 0.00 in 772 W/m2
12:15 55.2 °F 44.8 °F 29.99 in NE 4 mph 5 mph 68% 0.00 in 777 W/m2
12:20 55.3 °F 44.1 °F 29.99 in SW 4 mph 5 mph 66% 0.00 in 782 W/m2
12:25 55 °F 44.2 °F 29.99 in SW 5 mph 5 mph 67% 0.00 in 789 W/m2
12:30 55.4 °F 44.2 °F 29.99 in WSW 5 mph 5 mph 66% 0.00 in 795 W/m2
12:35 55.7 °F 44.5 °F 29.99 in SW 5 mph 9 mph 66% 0.00 in 798 W/m2
12:40 55.5 °F 43.1 °F 29.99 in SW 6 mph 10 mph 63% 0.00 in 802 W/m2
12:45 55.7 °F 43.3 °F 29.99 in SSW 8 mph 11 mph 63% 0.00 in 814 W/m2
12:50 55.4 °F 41.3 °F 29.99 in SSW 9 mph 9 mph 59% 0.00 in 816 W/m2
13:00 55.9 °F 43.1 °F 29.99 in South 9 mph 9 mph 62% 0.00 in 819 W/m2
13:05 56.2 °F 42.1 °F 29.99 in SW 9 mph 12 mph 59% 0.00 in 823 W/m2
13:10 56.2 °F 40.2 °F 29.99 in South 10 mph 10 mph 55% 0.00 in 828 W/m2
13:15 56.3 °F 40.8 °F 29.99 in SW 11 mph 11 mph 56% 0.00 in 831 W/m2
13:20 56.5 °F 41 °F 29.99 in SW 10 mph 12 mph 56% 0.00 in 828 W/m2
13:25 56.5 °F 42.3 °F 29.98 in SSW 9 mph 12 mph 59% 0.00 in 837 W/m2
13:30 56.9 °F 42.3 °F 29.99 in SSW 10 mph 10 mph 58% 0.00 in 861 W/m2
13:35 57.2 °F 43.9 °F 29.98 in West 9 mph 10 mph 61% 0.00 in 837 W/m2
13:40 57.3 °F 43.1 °F 29.98 in SSW 8 mph 11 mph 59% 0.00 in 833 W/m2
13:45 57 °F 41.9 °F 29.98 in SSW 9 mph 13 mph 57% 0.00 in 835 W/m2
13:50 57.3 °F 44 °F 29.98 in SW 9 mph 9 mph 61% 0.00 in 831 W/m2
13:55 58 °F 44.2 °F 29.98 in SW 8 mph 9 mph 60% 0.00 in 830 W/m2
14:00 58.5 °F 45.5 °F 29.98 in SW 6 mph 8 mph 62% 0.00 in 830 W/m2
14:05 58.3 °F 45.3 °F 29.98 in SW 6 mph 8 mph 62% 0.00 in 844 W/m2
14:10 58.3 °F 45.8 °F 29.98 in WSW 6 mph 6 mph 63% 0.00 in 826 W/m2
14:15 58.6 °F 44.8 °F 29.98 in West 6 mph 6 mph 60% 0.00 in 819 W/m2
14:20 58 °F 44.2 °F 29.98 in SW 6 mph 6 mph 60% 0.00 in 816 W/m2
14:25 58.3 °F 44 °F 29.98 in SSW 6 mph 6 mph 59% 0.00 in 817 W/m2
14:30 58.5 °F 45.1 °F 29.97 in WSW 5 mph 5 mph 61% 0.00 in 809 W/m2
14:40 58.3 °F 46.2 °F 29.97 in West 6 mph 8 mph 64% 0.00 in 800 W/m2
14:45 58.3 °F 45.8 °F 29.97 in SW 7 mph 8 mph 63% 0.00 in 798 W/m2
14:50 58.3 °F 46.2 °F 29.97 in WSW 8 mph 8 mph 64% 0.00 in 795 W/m2
14:55 58.6 °F 47.3 °F 29.97 in WSW 7 mph 8 mph 66% 0.00 in 791 W/m2
15:00 58.5 °F 45.5 °F 29.97 in WSW 7 mph 8 mph 62% 0.00 in 782 W/m2
15:05 58.5 °F 45.9 °F 29.97 in West 7 mph 10 mph 63% 0.00 in 772 W/m2
15:10 58.5 °F 45.9 °F 29.97 in SW 7 mph 7 mph 63% 0.00 in 768 W/m2
15:15 58.4 °F 46.7 °F 29.97 in SW 6 mph 7 mph 65% 0.00 in 759 W/m2
15:20 58.3 °F 46.2 °F 29.97 in SW 5 mph 5 mph 64% 0.00 in 751 W/m2
15:25 58.4 °F 47.5 °F 29.97 in SSW 5 mph 6 mph 67% 0.00 in 745 W/m2
15:30 58.5 °F 46.8 °F 29.97 in SW 5 mph 5 mph 65% 0.00 in 738 W/m2
15:35 58.8 °F 47.1 °F 29.97 in WNW 5 mph 5 mph 65% 0.00 in 731 W/m2
15:40 58.9 °F 46.7 °F 29.97 in West 5 mph 5 mph 64% 0.00 in 724 W/m2
15:50 59 °F 46.8 °F 29.97 in West 6 mph 9 mph 64% 0.00 in 707 W/m2
15:55 58.5 °F 45.1 °F 29.97 in SW 7 mph 9 mph 61% 0.00 in 698 W/m2
16:00 58.6 °F 44.3 °F 29.97 in SW 7 mph 7 mph 59% 0.00 in 684 W/m2
16:05 58.4 °F 44.1 °F 29.97 in WSW 7 mph 7 mph 59% 0.00 in 675 W/m2
16:10 58.5 °F 45.1 °F 29.97 in WSW 7 mph 11 mph 61% 0.00 in 670 W/m2
16:15 58.6 °F 45.2 °F 29.97 in WSW 7 mph 11 mph 61% 0.00 in 656 W/m2
16:20 58.3 °F 43.6 °F 29.97 in SSW 7 mph 7 mph 58% 0.00 in 643 W/m2
16:25 58.2 °F 43.9 °F 29.97 in SW 8 mph 8 mph 59% 0.00 in 636 W/m2
16:30 58.3 °F 43.1 °F 29.96 in WNW 8 mph 8 mph 57% 0.00 in 628 W/m2
16:35 58.2 °F 44.4 °F 29.96 in West 9 mph 11 mph 60% 0.00 in 615 W/m2
16:40 58.3 °F 46.2 °F 29.96 in SW 8 mph 8 mph 64% 0.00 in 605 W/m2
16:50 58.3 °F 43.1 °F 29.97 in SW 10 mph 10 mph 57% 0.00 in 584 W/m2
16:55 58.2 °F 42.1 °F 29.97 in West 10 mph 10 mph 55% 0.00 in 570 W/m2
17:00 58.2 °F 42.6 °F 29.96 in WSW 9 mph 12 mph 56% 0.00 in 550 W/m2
17:05 58.1 °F 41 °F 29.97 in WSW 9 mph 12 mph 53% 0.00 in 538 W/m2
17:10 58 °F 43.3 °F 29.97 in WNW 9 mph 16 mph 58% 0.00 in 526 W/m2
17:20 57.8 °F 45.3 °F 29.97 in WSW 8 mph 8 mph 63% 0.00 in 496 W/m2
17:25 57.9 °F 44.5 °F 29.97 in WSW 6 mph 8 mph 61% 0.00 in 483 W/m2
17:30 57.9 °F 44.5 °F 29.98 in WNW 7 mph 8 mph 61% 0.00 in 469 W/m2
17:35 57.7 °F 45.2 °F 29.97 in West 7 mph 8 mph 63% 0.00 in 454 W/m2
17:40 57.6 °F 44.7 °F 29.98 in SW 6 mph 6 mph 62% 0.00 in 439 W/m2
17:45 57.5 °F 44.1 °F 29.98 in SW 7 mph 7 mph 61% 0.00 in 424 W/m2
17:50 57.6 °F 43.8 °F 29.97 in SSW 7 mph 7 mph 60% 0.00 in 408 W/m2
17:55 57.5 °F 43.3 °F 29.97 in SW 6 mph 7 mph 59% 0.00 in 397 W/m2
18:00 57.5 °F 43.7 °F 29.98 in SSW 6 mph 6 mph 60% 0.00 in 380 W/m2
18:05 57.4 °F 43.6 °F 29.98 in WSW 7 mph 9 mph 60% 0.00 in 364 W/m2
18:10 57.3 °F 43.1 °F 29.98 in SW 7 mph 7 mph 59% 0.00 in 348 W/m2
18:20 57 °F 43.7 °F 29.98 in SW 7 mph 10 mph 61% 0.00 in 315 W/m2
18:25 56.9 °F 44.4 °F 29.98 in WSW 9 mph 10 mph 63% 0.00 in 297 W/m2
18:30 56.9 °F 44.8 °F 29.98 in WSW 8 mph 8 mph 64% 0.00 in 258 W/m2
18:35 56.8 °F 43.5 °F 29.98 in West 7 mph 8 mph 61% 0.00 in 243 W/m2
18:40 56.8 °F 43.5 °F 29.98 in SW 7 mph 7 mph 61% 0.00 in 146 W/m2
18:45 56.7 °F 43.4 °F 29.98 in WSW 7 mph 7 mph 61% 0.00 in 132 W/m2
18:50 56.6 °F 44.1 °F 29.98 in SW 7 mph 10 mph 63% 0.00 in 139 W/m2
18:55 56.5 °F 45.3 °F 29.98 in SW 7 mph 10 mph 66% 0.00 in 67 W/m2
19:00 56.3 °F 45.1 °F 29.98 in SW 6 mph 6 mph 66% 0.00 in 156 W/m2
19:05 56.2 °F 44.2 °F 29.98 in West 5 mph 7 mph 64% 0.00 in 95 W/m2
19:10 56 °F 44.8 °F 29.98 in SW 5 mph 7 mph 66% 0.00 in 81 W/m2
19:20 55.8 °F 43.8 °F 29.98 in SW 7 mph 9 mph 64% 0.00 in 56 W/m2
19:25 55.8 °F 44.2 °F 29.98 in West 6 mph 9 mph 65% 0.00 in 81 W/m2
19:30 55.6 °F 44 °F 29.98 in SSW 6 mph 6 mph 65% 0.00 in 54 W/m2
19:35 55.5 °F 45.1 °F 29.98 in SW 5 mph 6 mph 68% 0.00 in 69 W/m2
19:40 55.4 °F 44.2 °F 29.98 in SW 5 mph 5 mph 66% 0.00 in 46 W/m2
19:50 55.1 °F 45.1 °F 29.98 in WSW 5 mph 5 mph 69% 0.00 in 32 W/m2
19:55 55.1 °F 45.1 °F 29.98 in SW 5 mph 5 mph 69% 0.00 in 19 W/m2
20:00 55.1 °F 45.1 °F 29.99 in West 6 mph 6 mph 69% 0.00 in 14 W/m2
20:05 54.8 °F 44 °F 29.99 in WSW 6 mph 7 mph 67% 0.00 in 12 W/m2
20:10 54.6 °F 44.6 °F 29.99 in SSW 6 mph 6 mph 69% 0.00 in 9 W/m2
20:20 54.4 °F 44.4 °F 29.99 in WSW 6 mph 10 mph 69% 0.00 in 0 W/m2
20:25 54.2 °F 44.6 °F 29.99 in WSW 6 mph 10 mph 70% 0.00 in 0 W/m2
20:30 54.2 °F 45.4 °F 29.99 in SSW 5 mph 7 mph 72% 0.00 in 0 W/m2
20:35 54 °F 43.7 °F 29.99 in SW 6 mph 7 mph 68% 0.00 in 0 W/m2
20:40 53.9 °F 44 °F 30.00 in SW 7 mph 7 mph 69% 0.00 in 0 W/m2
20:45 53.9 °F 43.6 °F 30.00 in West 6 mph 9 mph 68% 0.00 in 0 W/m2
20:50 53.8 °F 43.1 °F 30.00 in NW 5 mph 5 mph 67% 0.00 in 0 W/m2
20:55 53.6 °F 42.1 °F 30.00 in WSW 5 mph 5 mph 65% 0.00 in 0 W/m2
21:00 53.4 °F 42.3 °F 30.00 in West 5 mph 11 mph 66% 0.00 in 0 W/m2
21:10 53 °F 42.3 °F 30.01 in West 5 mph 9 mph 67% 0.00 in 0 W/m2
21:15 52.8 °F 41.7 °F 30.01 in WSW 6 mph 9 mph 66% 0.00 in 0 W/m2
21:20 52.5 °F 41.5 °F 30.01 in WSW 6 mph 8 mph 66% 0.00 in 0 W/m2
21:25 52.4 °F 41.4 °F 30.01 in West 6 mph 8 mph 66% 0.00 in 0 W/m2
21:30 52.3 °F 41.3 °F 30.01 in WSW 7 mph 7 mph 66% 0.00 in 0 W/m2
21:40 51.9 °F 41.3 °F 30.02 in West 6 mph 7 mph 67% 0.00 in 0 W/m2
21:45 51.7 °F 41.1 °F 30.02 in WNW 7 mph 7 mph 67% 0.00 in 0 W/m2
21:50 51.4 °F 40.8 °F 30.02 in West 7 mph 14 mph 67% 0.00 in 0 W/m2
21:55 51.1 °F 40.5 °F 30.02 in NW 7 mph 14 mph 67% 0.00 in 0 W/m2
22:00 50.9 °F 40.7 °F 30.03 in West 8 mph 13 mph 68% 0.00 in 0 W/m2
22:05 50.6 °F 40 °F 30.02 in WSW 9 mph 13 mph 67% 0.00 in 0 W/m2
22:10 50.4 °F 39.5 °F 30.03 in West 9 mph 12 mph 66% 0.00 in 0 W/m2
22:20 50 °F 39.5 °F 30.03 in West 8 mph 8 mph 67% 0.00 in 0 W/m2
22:25 49.9 °F 39.4 °F 30.03 in WNW 8 mph 8 mph 67% 0.00 in 0 W/m2
22:30 49.8 °F 39.3 °F 30.03 in NW 8 mph 9 mph 67% 0.00 in 0 W/m2
22:35 49.6 °F 39.5 °F 30.04 in WSW 9 mph 13 mph 68% 0.00 in 0 W/m2
22:40 49.4 °F 39.3 °F 30.04 in WNW 8 mph 8 mph 68% 0.00 in 0 W/m2
22:45 49.3 °F 39.2 °F 30.04 in WNW 8 mph 8 mph 68% 0.00 in 0 W/m2
22:50 49.1 °F 39.4 °F 30.04 in West 8 mph 11 mph 69% 0.00 in 0 W/m2
23:00 48.8 °F 38.7 °F 30.04 in WNW 8 mph 8 mph 68% 0.00 in 0 W/m2
23:05 48.6 °F 38.9 °F 30.04 in NNW 6 mph 11 mph 69% 0.00 in 0 W/m2
23:10 48.4 °F 37.9 °F 30.05 in WNW 6 mph 6 mph 67% 0.00 in 0 W/m2
23:15 48.3 °F 37.5 °F 30.04 in West 7 mph 9 mph 66% 0.00 in 0 W/m2
23:20 48.3 °F 37.1 °F 30.05 in West 8 mph 8 mph 65% 0.00 in 0 W/m2
23:25 48.1 °F 36.9 °F 30.05 in WNW 8 mph 10 mph 65% 0.00 in 0 W/m2
23:30 48 °F 36.4 °F 30.05 in WSW 7 mph 7 mph 64% 0.00 in 0 W/m2
23:35 47.9 °F 37.1 °F 30.05 in West 7 mph 14 mph 66% 0.00 in 0 W/m2
23:40 47.8 °F 36.6 °F 30.05 in WNW 7 mph 7 mph 65% 0.00 in 0 W/m2
23:45 47.7 °F 36.9 °F 30.05 in West 6 mph 10 mph 66% 0.00 in 0 W/m2
23:50 47.6 °F 36.8 °F 30.05 in West 7 mph 7 mph 66% 0.00 in 0 W/m2
23:55 47.5 °F 36.7 °F 30.05 in West 7 mph 7 mph 66% 0.00 in 0 W/m2
Sand Point, Michigan, USA
Compliments of Weather Underground - 2 mb